Terminal Aerodrome Forecast
Issued by NWS

Home | Current Version | Previous Version | Text Only | Print | Product List | Glossary On
Versions: 1 2 3 4 5 6 7 8 9 10 11 12 13 14 15 16
000
FTUS43 KDVN 310500
TAFCID
TAF
KCID 310520Z 3106/0106 30004KT P6SM SKC
     FM310900 29003KT 5SM BR FEW010
     FM311400 26007KT P6SM SCT050
     FM010100 28003KT P6SM SKC=

USA.gov is the U.S. government's official web portal to all federal, state and local government web resources and services.